createdAt,value
2022-12-29T00:02:39.484Z,78.74
2022-12-29T00:05:25.169Z,78.13
2022-12-29T00:08:10.657Z,78.44
2022-12-29T00:10:56.238Z,78.43
2022-12-29T00:14:01.045Z,77.52
2022-12-29T00:16:46.650Z,77.85
2022-12-29T00:19:50.172Z,77.97
2022-12-29T00:22:54.408Z,77.96
2022-12-29T00:25:58.769Z,79.62
2022-12-29T00:29:02.630Z,77.87
2022-12-29T00:32:06.536Z,77.24
2022-12-29T00:35:11.187Z,77.18
2022-12-29T00:38:21.015Z,79.11
2022-12-29T00:41:25.147Z,78.24
2022-12-29T00:44:12.338Z,78.25
2022-12-29T00:46:57.910Z,78.29
2022-12-29T00:49:43.808Z,78.30
2022-12-29T00:52:29.210Z,79.02
2022-12-29T00:55:14.613Z,78.58
2022-12-29T00:58:00.079Z,78.41
2022-12-29T01:00:45.419Z,78.93
2022-12-29T01:03:31.834Z,78.38
2022-12-29T01:06:17.139Z,79.24
2022-12-29T01:09:23.633Z,79.55
2022-12-29T01:12:10.499Z,78.87
2022-12-29T01:14:55.927Z,78.64
2022-12-29T01:17:41.674Z,79.08
2022-12-29T01:20:29.665Z,78.50
2022-12-29T01:23:15.975Z,78.52
2022-12-29T01:26:16.785Z,78.41
2022-12-29T01:29:02.827Z,78.30
2022-12-29T01:31:48.499Z,78.31
2022-12-29T01:34:34.321Z,79.12
2022-12-29T01:37:19.813Z,79.13
2022-12-29T01:40:06.131Z,79.71
2022-12-29T01:42:52.768Z,79.39
2022-12-29T01:45:38.073Z,79.15
2022-12-29T01:48:23.652Z,79.83
2022-12-29T01:51:09.654Z,80.13
2022-12-29T01:54:00.493Z,80.21
2022-12-29T01:56:47.023Z,79.59
2022-12-29T01:59:38.223Z,78.75
2022-12-29T02:02:25.588Z,78.99
2022-12-29T02:05:24.456Z,78.88
2022-12-29T02:08:12.247Z,79.25
2022-12-29T02:11:00.548Z,79.15
2022-12-29T02:13:46.278Z,79.46
2022-12-29T02:16:59.829Z,79.28
2022-12-29T02:20:22.016Z,79.42
2022-12-29T02:23:46.924Z,79.59
2022-12-29T02:26:51.888Z,79.49
2022-12-29T02:30:04.854Z,80.02
2022-12-29T02:33:02.484Z,80.11
2022-12-29T02:36:06.579Z,79.50
2022-12-29T02:39:11.722Z,79.39
2022-12-29T02:42:25.646Z,79.89
2022-12-29T02:45:40.108Z,79.46
2022-12-29T02:48:29.140Z,80.11
2022-12-29T02:51:41.067Z,79.14
2022-12-29T02:54:42.317Z,79.32
2022-12-29T02:57:35.013Z,77.94
2022-12-29T03:00:21.363Z,78.27
2022-12-29T03:03:32.988Z,78.32
2022-12-29T03:06:21.367Z,78.19
2022-12-29T03:09:21.246Z,78.76
2022-12-29T03:13:03.632Z,78.71
2022-12-29T03:16:06.457Z,78.66
2022-12-29T03:19:22.177Z,77.91
2022-12-29T03:22:31.696Z,78.00
2022-12-29T03:25:39.476Z,78.03
2022-12-29T03:28:32.963Z,77.99
2022-12-29T03:31:21.356Z,78.38
2022-12-29T03:34:09.415Z,78.35
2022-12-29T03:37:01.866Z,78.89
2022-12-29T03:39:47.960Z,79.20
2022-12-29T03:42:37.390Z,79.68
2022-12-29T03:45:23.595Z,79.25
2022-12-29T03:48:09.099Z,79.29
2022-12-29T03:50:57.035Z,79.51
2022-12-29T03:53:42.481Z,79.80
2022-12-29T03:56:27.962Z,79.41
2022-12-29T03:59:13.334Z,79.85
2022-12-29T04:01:59.454Z,79.16
2022-12-29T04:04:45.452Z,78.79
2022-12-29T04:07:31.040Z,77.95
2022-12-29T04:10:17.175Z,78.98
2022-12-29T04:13:04.043Z,77.97
2022-12-29T04:15:50.113Z,78.62
2022-12-29T04:18:36.897Z,78.43
2022-12-29T04:21:22.252Z,78.51
2022-12-29T04:24:08.027Z,77.77
2022-12-29T04:26:58.323Z,78.16
2022-12-29T04:30:00.498Z,78.46
2022-12-29T04:33:01.069Z,78.64
2022-12-29T04:35:48.318Z,79.30
2022-12-29T04:38:34.115Z,78.77
2022-12-29T04:41:22.550Z,78.76
2022-12-29T04:44:08.068Z,79.41
2022-12-29T04:47:19.738Z,79.18
2022-12-29T04:50:34.399Z,79.04
2022-12-29T04:53:34.781Z,79.65
2022-12-29T04:56:20.836Z,79.33
2022-12-29T04:59:06.706Z,78.84
2022-12-29T05:01:53.226Z,80.26
2022-12-29T05:04:38.580Z,80.25
2022-12-29T05:07:24.071Z,80.30
2022-12-29T05:10:10.330Z,80.20
2022-12-29T05:12:55.992Z,79.83
2022-12-29T05:15:41.906Z,79.68
2022-12-29T05:18:27.218Z,79.81
2022-12-29T05:21:13.068Z,79.08
2022-12-29T05:24:00.590Z,80.00
2022-12-29T05:26:47.057Z,80.21
2022-12-29T05:29:55.971Z,77.05
2022-12-29T05:32:41.646Z,77.75
2022-12-29T05:35:27.594Z,78.42
2022-12-29T05:38:13.007Z,78.75
2022-12-29T05:40:59.600Z,78.53
2022-12-29T05:44:04.918Z,78.67
2022-12-29T05:46:58.994Z,78.88
2022-12-29T05:50:03.845Z,78.10
2022-12-29T05:53:11.917Z,77.83
2022-12-29T05:55:57.969Z,78.65
2022-12-29T05:58:43.436Z,78.02
2022-12-29T06:01:29.346Z,78.77
2022-12-29T06:04:17.914Z,78.61
2022-12-29T06:07:03.617Z,78.89
2022-12-29T06:10:05.234Z,79.09
2022-12-29T06:12:54.967Z,78.81
2022-12-29T06:15:40.399Z,78.37
2022-12-29T06:18:27.352Z,79.25
2022-12-29T06:21:12.964Z,78.99
2022-12-29T06:23:58.506Z,78.79
2022-12-29T06:26:44.656Z,78.76
2022-12-29T06:29:29.992Z,78.00
2022-12-29T06:32:17.099Z,78.00
2022-12-29T06:35:07.364Z,79.28
2022-12-29T06:37:57.576Z,78.48
2022-12-29T06:40:45.998Z,78.42
2022-12-29T06:43:54.715Z,76.88
2022-12-29T06:46:47.665Z,77.63
2022-12-29T06:49:32.940Z,76.34
2022-12-29T06:52:18.387Z,76.43
2022-12-29T06:55:04.696Z,76.83
2022-12-29T06:57:50.053Z,76.93
2022-12-29T07:00:35.759Z,77.29
2022-12-29T07:03:21.302Z,78.55
2022-12-29T07:06:07.009Z,78.53
2022-12-29T07:08:55.215Z,78.82
2022-12-29T07:11:40.282Z,77.29
2022-12-29T07:14:25.681Z,77.33
2022-12-29T07:17:11.412Z,76.96
2022-12-29T07:19:57.105Z,78.48
2022-12-29T07:22:42.961Z,79.13
2022-12-29T07:25:28.807Z,77.69
2022-12-29T07:28:14.329Z,76.72
2022-12-29T07:31:00.445Z,76.65
2022-12-29T07:33:46.494Z,79.13
2022-12-29T07:36:34.665Z,76.91
2022-12-29T07:39:20.361Z,77.02
2022-12-29T07:42:05.752Z,76.30
2022-12-29T07:44:59.716Z,76.06
2022-12-29T07:47:50.775Z,77.65
2022-12-29T07:50:37.509Z,76.63
2022-12-29T07:53:23.297Z,76.52
2022-12-29T07:56:09.562Z,75.69
2022-12-29T07:58:54.883Z,77.49
2022-12-29T08:01:40.416Z,77.02
2022-12-29T08:04:25.741Z,76.75
2022-12-29T08:07:11.483Z,75.22
2022-12-29T08:09:57.319Z,76.76
2022-12-29T08:12:43.950Z,77.04
2022-12-29T08:15:32.485Z,77.81
2022-12-29T08:18:18.086Z,77.27
2022-12-29T08:21:05.094Z,76.81
2022-12-29T08:23:51.031Z,76.03
2022-12-29T08:26:36.745Z,76.03
2022-12-29T08:29:22.603Z,76.31
2022-12-29T08:32:08.351Z,76.53
2022-12-29T08:34:54.164Z,76.37
2022-12-29T08:37:39.696Z,77.28
2022-12-29T08:40:25.627Z,77.40
2022-12-29T08:43:11.302Z,76.84
2022-12-29T08:45:58.745Z,77.70
2022-12-29T08:48:44.183Z,78.32
2022-12-29T08:51:29.988Z,74.02
2022-12-29T08:54:15.645Z,75.16
2022-12-29T08:57:01.174Z,73.37
2022-12-29T08:59:53.770Z,75.12
2022-12-29T09:02:41.204Z,75.60
2022-12-29T09:05:27.097Z,74.64
2022-12-29T09:08:12.962Z,75.72
2022-12-29T09:11:10.162Z,74.42
2022-12-29T09:13:55.933Z,74.80
2022-12-29T09:17:00.215Z,74.76
2022-12-29T09:19:45.666Z,74.84
2022-12-29T09:22:31.136Z,75.23
2022-12-29T09:25:17.139Z,74.47
2022-12-29T09:28:07.237Z,74.58
2022-12-29T09:30:54.136Z,72.98
2022-12-29T09:33:40.260Z,74.08
2022-12-29T09:36:26.083Z,75.24
2022-12-29T09:39:11.495Z,74.61
2022-12-29T09:42:15.444Z,73.58
2022-12-29T09:45:23.361Z,75.19
2022-12-29T09:48:18.908Z,73.60
2022-12-29T09:51:12.385Z,73.83
2022-12-29T09:54:01.754Z,72.26
2022-12-29T09:56:48.926Z,75.38
2022-12-29T09:59:43.038Z,70.86
2022-12-29T10:02:36.509Z,74.92
2022-12-29T10:05:36.332Z,73.88
2022-12-29T10:08:48.963Z,74.73
2022-12-29T10:11:56.311Z,72.56
2022-12-29T10:15:17.638Z,71.65
2022-12-29T10:18:31.451Z,73.58
2022-12-29T10:21:38.341Z,75.29
2022-12-29T10:24:27.774Z,71.75
2022-12-29T10:27:16.384Z,74.24
2022-12-29T10:30:03.782Z,75.83
2022-12-29T10:32:59.705Z,76.41
2022-12-29T10:35:47.005Z,74.84
2022-12-29T10:38:38.562Z,70.62
2022-12-29T10:41:35.438Z,74.81
2022-12-29T10:44:22.467Z,73.27
2022-12-29T10:48:17.056Z,76.40
2022-12-29T10:51:05.577Z,71.71
2022-12-29T10:54:01.120Z,72.05
2022-12-29T10:57:04.643Z,70.45
2022-12-29T10:59:50.403Z,72.68
2022-12-29T11:02:54.980Z,73.39
2022-12-29T11:05:43.365Z,72.50
2022-12-29T11:08:36.869Z,73.74
2022-12-29T11:11:33.161Z,72.03
2022-12-29T11:14:29.467Z,73.36
2022-12-29T11:17:19.401Z,74.45
2022-12-29T11:20:38.810Z,72.60
2022-12-29T11:23:29.683Z,74.81
2022-12-29T11:26:21.923Z,71.28
2022-12-29T11:29:29.368Z,75.13
2022-12-29T11:32:28.119Z,73.40
2022-12-29T11:35:35.508Z,71.66
2022-12-29T11:38:25.529Z,69.72
2022-12-29T11:41:30.404Z,72.47
2022-12-29T11:44:15.968Z,73.35
2022-12-29T11:47:01.794Z,73.99
2022-12-29T11:49:53.811Z,75.13
2022-12-29T11:52:40.751Z,75.07
2022-12-29T11:55:29.061Z,72.88
2022-12-29T11:58:17.067Z,73.10
2022-12-29T12:01:19.552Z,74.45
2022-12-29T12:04:12.926Z,73.84
2022-12-29T12:07:18.930Z,74.61
2022-12-29T12:10:08.348Z,75.74
2022-12-29T12:13:00.827Z,75.37
2022-12-29T12:15:57.123Z,73.32
2022-12-29T12:18:57.950Z,72.86
2022-12-29T12:21:51.450Z,71.41
2022-12-29T12:24:46.142Z,76.36
2022-12-29T12:27:42.677Z,73.31
2022-12-29T12:30:34.949Z,74.08
2022-12-29T12:33:29.933Z,74.71
2022-12-29T12:36:27.910Z,76.92
2022-12-29T12:39:32.283Z,73.46
2022-12-29T12:42:20.602Z,73.22
2022-12-29T12:45:44.516Z,77.25
2022-12-29T12:49:09.236Z,75.17
2022-12-29T12:52:21.453Z,74.88
2022-12-29T12:55:38.441Z,71.07
2022-12-29T12:58:48.755Z,73.97
2022-12-29T13:01:40.417Z,73.93
2022-12-29T13:04:49.706Z,73.47
2022-12-29T13:07:57.219Z,74.30
2022-12-29T13:11:02.831Z,73.71
2022-12-29T13:14:31.350Z,73.92
2022-12-29T13:17:46.595Z,73.04
2022-12-29T13:20:35.358Z,73.31
2022-12-29T13:23:46.277Z,74.77
2022-12-29T13:26:38.382Z,74.10
2022-12-29T13:29:34.043Z,74.87
2022-12-29T13:32:33.347Z,73.04
2022-12-29T13:35:56.420Z,73.95
2022-12-29T13:38:49.659Z,75.53
2022-12-29T13:41:41.961Z,75.43
2022-12-29T13:44:42.460Z,76.05
2022-12-29T13:47:28.331Z,75.11
2022-12-29T13:50:20.880Z,76.41
2022-12-29T13:53:15.377Z,74.92
2022-12-29T13:56:03.791Z,77.02
2022-12-29T13:58:58.276Z,75.06
2022-12-29T14:01:55.547Z,76.42
2022-12-29T14:05:00.135Z,75.41
2022-12-29T14:07:46.389Z,74.41
2022-12-29T14:10:47.297Z,77.82
2022-12-29T14:13:37.852Z,74.92
2022-12-29T14:16:33.788Z,76.17
2022-12-29T14:19:28.372Z,75.54
2022-12-29T14:22:13.912Z,76.90
2022-12-29T14:24:59.971Z,74.78
2022-12-29T14:27:53.872Z,75.98
2022-12-29T14:30:51.275Z,74.97
2022-12-29T14:33:36.810Z,76.00
2022-12-29T14:36:33.934Z,76.11
2022-12-29T14:39:45.270Z,75.98
2022-12-29T14:42:32.493Z,78.33
2022-12-29T14:45:18.096Z,76.47
2022-12-29T14:48:29.335Z,77.17
2022-12-29T14:51:37.113Z,75.97
2022-12-29T14:54:34.707Z,75.87
2022-12-29T14:57:32.000Z,76.46
2022-12-29T15:00:19.976Z,75.87
2022-12-29T15:03:07.313Z,75.75
2022-12-29T15:05:57.188Z,78.58
2022-12-29T15:09:01.290Z,76.45
2022-12-29T15:11:53.992Z,76.64
2022-12-29T15:14:49.724Z,77.42
2022-12-29T15:17:35.623Z,76.62
2022-12-29T15:20:28.760Z,76.81
2022-12-29T15:23:17.251Z,77.37
2022-12-29T15:26:08.692Z,77.09
2022-12-29T15:28:55.721Z,77.23
2022-12-29T15:31:49.794Z,77.24
2022-12-29T15:34:35.651Z,77.14
2022-12-29T15:37:26.815Z,77.27
2022-12-29T15:40:25.173Z,77.84
2022-12-29T15:43:32.156Z,77.80
2022-12-29T15:46:18.364Z,78.67
2022-12-29T15:49:08.201Z,78.04
2022-12-29T15:51:53.886Z,77.60
2022-12-29T15:54:39.405Z,78.27
2022-12-29T15:57:26.630Z,78.12
2022-12-29T16:00:27.342Z,78.69
2022-12-29T16:03:15.032Z,78.61
2022-12-29T16:06:26.048Z,78.30
2022-12-29T16:09:19.947Z,78.48
2022-12-29T16:12:09.372Z,79.05
2022-12-29T16:14:59.712Z,78.95
2022-12-29T16:17:53.884Z,79.17
2022-12-29T16:20:42.782Z,79.30
2022-12-29T16:23:30.437Z,78.97
2022-12-29T16:26:19.434Z,78.39
2022-12-29T16:29:08.589Z,79.69
2022-12-29T16:32:04.379Z,79.51
2022-12-29T16:35:26.843Z,79.19
2022-12-29T16:38:18.253Z,78.89
2022-12-29T16:41:04.348Z,79.13
2022-12-29T16:44:21.212Z,78.53
2022-12-29T16:47:20.624Z,79.64
2022-12-29T16:50:28.081Z,79.63
2022-12-29T16:53:32.628Z,78.69
2022-12-29T16:56:21.291Z,78.58
2022-12-29T16:59:26.910Z,79.19
2022-12-29T17:02:16.605Z,78.67
2022-12-29T17:05:02.262Z,79.10
2022-12-29T17:07:48.510Z,79.66
2022-12-29T17:10:53.344Z,79.56
2022-12-29T17:13:39.475Z,80.29
2022-12-29T17:16:25.320Z,79.72
2022-12-29T17:19:18.066Z,80.51
2022-12-29T17:22:09.953Z,80.25
2022-12-29T17:24:57.749Z,80.46
2022-12-29T17:27:59.099Z,79.62
2022-12-29T17:30:44.947Z,80.28
2022-12-29T17:33:37.722Z,80.12
2022-12-29T17:36:23.533Z,79.82
2022-12-29T17:39:09.606Z,79.01
2022-12-29T17:41:55.029Z,80.20
2022-12-29T17:44:40.516Z,80.11
2022-12-29T17:47:25.904Z,79.82
2022-12-29T17:50:17.768Z,81.09
2022-12-29T17:53:05.858Z,79.71
2022-12-29T17:55:52.133Z,80.80
2022-12-29T17:58:37.415Z,80.49
2022-12-29T18:01:31.018Z,80.83
2022-12-29T18:04:20.301Z,80.29
2022-12-29T18:07:11.465Z,80.45
2022-12-29T18:09:57.270Z,80.34
2022-12-29T18:12:45.925Z,80.42
2022-12-29T18:15:37.625Z,79.95
2022-12-29T18:18:26.402Z,79.79
2022-12-29T18:21:16.793Z,80.04
2022-12-29T18:24:03.218Z,80.47
2022-12-29T18:26:48.415Z,81.02
2022-12-29T18:29:35.645Z,81.03
2022-12-29T18:32:21.429Z,81.30
2022-12-29T18:35:31.121Z,80.96
2022-12-29T18:38:16.728Z,81.00
2022-12-29T18:41:02.253Z,80.87
2022-12-29T18:43:47.845Z,80.72
2022-12-29T18:46:33.333Z,80.57
2022-12-29T18:49:19.153Z,82.09
2022-12-29T18:52:04.999Z,82.19
2022-12-29T18:54:50.349Z,81.47
2022-12-29T18:57:35.926Z,81.41
2022-12-29T19:00:23.047Z,81.92
2022-12-29T19:03:12.565Z,82.04
2022-12-29T19:05:58.230Z,81.41
2022-12-29T19:08:44.086Z,81.12
2022-12-29T19:11:29.574Z,81.29
2022-12-29T19:14:17.548Z,81.76
2022-12-29T19:17:02.923Z,81.59
2022-12-29T19:19:48.445Z,81.75
2022-12-29T19:22:33.871Z,80.71
2022-12-29T19:25:19.303Z,80.95
2022-12-29T19:28:05.862Z,80.88
2022-12-29T19:30:53.094Z,81.80
2022-12-29T19:33:38.708Z,81.85
2022-12-29T19:36:24.219Z,81.21
2022-12-29T19:39:10.042Z,80.61
2022-12-29T19:41:59.118Z,81.09
2022-12-29T19:44:47.615Z,80.55
2022-12-29T19:47:33.861Z,81.25
2022-12-29T19:50:19.649Z,80.93
2022-12-29T19:53:05.960Z,81.49
2022-12-29T19:55:51.275Z,81.82
2022-12-29T19:58:40.505Z,81.11
2022-12-29T20:01:29.911Z,81.52
2022-12-29T20:04:15.596Z,81.97
2022-12-29T20:07:00.854Z,81.84
2022-12-29T20:09:46.813Z,81.75
2022-12-29T20:12:32.799Z,82.07
2022-12-29T20:15:18.363Z,82.31
2022-12-29T20:18:13.700Z,82.16
2022-12-29T20:21:08.506Z,82.71
2022-12-29T20:23:54.560Z,82.10
2022-12-29T20:26:40.105Z,84.19
2022-12-29T20:29:25.718Z,82.30
2022-12-29T20:32:18.303Z,83.22
2022-12-29T20:35:03.559Z,82.09
2022-12-29T20:37:48.947Z,82.57
2022-12-29T20:40:40.652Z,82.23
2022-12-29T20:43:30.095Z,81.30
2022-12-29T20:46:20.887Z,81.24
2022-12-29T20:49:08.121Z,82.03
2022-12-29T20:52:09.117Z,81.23
2022-12-29T20:54:54.522Z,80.34
2022-12-29T20:58:14.196Z,81.43
2022-12-29T21:00:45.743Z,80.57
2022-12-29T21:03:31.751Z,80.58
2022-12-29T21:06:17.557Z,80.04
2022-12-29T21:09:04.063Z,80.06
2022-12-29T21:11:49.993Z,80.30
2022-12-29T21:14:37.649Z,79.49
2022-12-29T21:17:26.412Z,79.51
2022-12-29T21:20:20.140Z,79.37
2022-12-29T21:23:06.734Z,79.85
2022-12-29T21:25:53.731Z,80.83
2022-12-29T21:28:40.244Z,80.35
2022-12-29T21:31:36.655Z,79.94
2022-12-29T21:34:22.515Z,81.14
2022-12-29T21:37:08.058Z,81.11
2022-12-29T21:39:53.578Z,80.47
2022-12-29T21:42:38.864Z,81.34
2022-12-29T21:45:27.677Z,80.96
2022-12-29T21:48:24.115Z,80.63
2022-12-29T21:51:32.339Z,80.58
2022-12-29T21:54:43.186Z,80.37
2022-12-29T21:57:47.311Z,80.30
2022-12-29T22:00:51.665Z,80.59
2022-12-29T22:03:57.706Z,80.19
2022-12-29T22:07:01.879Z,80.85
2022-12-29T22:10:05.948Z,80.53
2022-12-29T22:13:01.027Z,81.37
2022-12-29T22:15:46.814Z,80.50
2022-12-29T22:18:32.277Z,81.50
2022-12-29T22:21:18.219Z,81.31
2022-12-29T22:24:04.166Z,81.18
2022-12-29T22:26:49.411Z,80.97
2022-12-29T22:29:35.333Z,80.97
2022-12-29T22:32:22.286Z,80.99
2022-12-29T22:35:10.150Z,80.90
2022-12-29T22:37:55.910Z,81.54
2022-12-29T22:40:41.560Z,80.79
2022-12-29T22:43:29.960Z,81.19
2022-12-29T22:46:15.647Z,81.15
2022-12-29T22:49:01.349Z,81.10
2022-12-29T22:51:46.514Z,81.33
2022-12-29T22:54:32.110Z,81.93
2022-12-29T22:57:17.759Z,81.32
2022-12-29T23:00:08.306Z,81.29
2022-12-29T23:02:54.058Z,81.66
2022-12-29T23:05:39.416Z,80.83
2022-12-29T23:08:24.931Z,81.76
2022-12-29T23:11:12.454Z,82.00
2022-12-29T23:13:59.227Z,81.10
2022-12-29T23:16:45.311Z,81.82
2022-12-29T23:19:31.055Z,81.97
2022-12-29T23:22:17.014Z,82.11
2022-12-29T23:25:02.765Z,81.45
2022-12-29T23:27:48.189Z,81.86
2022-12-29T23:30:34.373Z,81.70
2022-12-29T23:33:19.989Z,81.80
2022-12-29T23:36:05.849Z,81.82
2022-12-29T23:38:51.476Z,81.95
2022-12-29T23:41:37.153Z,82.08
2022-12-29T23:44:23.319Z,82.41
2022-12-29T23:47:08.918Z,81.98
2022-12-29T23:49:54.451Z,82.13
2022-12-29T23:52:40.019Z,82.40
2022-12-29T23:55:25.562Z,82.44
